Terminal Aerodrome Forecast
Issued by NWS

Home | Current Version | Previous Version | Text Only | Print | Product List | Glossary On
Versions: 1 2 3 4 5 6 7 8 9 10 11 12 13
505
FTUS42 KTBW 010536
TAFPIE
TAF
KPIE 010536Z 0106/0206 00000KT P6SM FEW070
     FM011400 04006KT P6SM SCT030 SCT250
     FM011800 03005KT P6SM VCTS SCT040CB SCT250
     FM012100 33007KT P6SM FEW045 SCT100
     FM020200 04006KT P6SM FEW035 SCT250=

USA.gov is the U.S. government's official web portal to all federal, state and local government web resources and services.